Time;durP1;ratioP1;P1;durP2;ratioP2;P2;SDS_P1;SDS_P2;PMS_P1;PMS_P2;Temp;Humidity;BMP_temperature;BMP_pressure;BME280_temperature;BME280_humidity;BME280_pressure;Samples;Min_cycle;Max_cycle;Signal;HPM_P1;HPM_P2
2022/01/09 00:01:24;;;;;;;16.60;12.30;;;;;;99656.98;;;;108472;1280;62538;-38
2022/01/09 00:03:53;;;;;;;15.00;11.70;;;;;;99652.38;;;;108428;1280;62474;-38
2022/01/09 00:06:20;;;;;;;16.40;12.70;;;;;;99645.81;;;;108420;1280;66370;-40
2022/01/09 00:08:51;;;;;;;16.80;12.50;;;;;;99645.84;;;;108398;1280;62934;-40
2022/01/09 00:11:25;;;;;;;15.20;11.80;;;;;;99647.17;;;;108346;1281;62672;-38
2022/01/09 00:13:57;;;;;;;15.80;12.50;;;;;;99644.52;;;;108409;1281;62449;-38
2022/01/09 00:16:24;;;;;;;15.50;12.70;;;;;;99640.70;;;;108502;1280;62519;-38
2022/01/09 00:18:52;;;;;;;16.30;12.60;;;;;;99639.98;;;;108218;1282;64698;-37
2022/01/09 00:21:19;;;;;;;16.60;12.40;;;;;;99643.09;;;;108252;1281;62713;-38
2022/01/09 00:23:47;;;;;;;16.80;12.10;;;;;;99643.83;;;;108416;1281;62481;-38
2022/01/09 00:26:14;;;;;;;15.10;12.30;;;;;;99643.33;;;;108404;1281;62550;-39
2022/01/09 00:28:41;;;;;;;17.60;12.70;;;;;;99639.19;;;;108434;1281;62687;-39
2022/01/09 00:31:09;;;;;;;17.40;13.50;;;;;;99639.86;;;;108418;1280;65894;-38
2022/01/09 00:33:36;;;;;;;16.40;12.20;;;;;;99641.17;;;;108365;1281;62493;-40
2022/01/09 00:36:04;;;;;;;19.70;13.20;;;;;;99638.04;;;;108428;1280;62494;-40
2022/01/09 00:38:31;;;;;;;17.50;13.20;;;;;;99634.78;;;;108415;1281;62560;-32
2022/01/09 00:40:58;;;;;;;17.80;12.60;;;;;;99631.09;;;;108252;1281;62524;-31
2022/01/09 00:43:26;;;;;;;18.60;13.40;;;;;;99628.77;;;;108485;1280;66057;-32
2022/01/09 00:45:54;;;;;;;18.80;13.70;;;;;;99625.92;;;;108501;1280;62613;-33
2022/01/09 00:48:21;;;;;;;17.80;13.50;;;;;;99624.89;;;;108367;1280;62618;-33
2022/01/09 00:50:48;;;;;;;16.30;12.70;;;;;;99622.02;;;;108502;1280;62576;-38
2022/01/09 00:53:15;;;;;;;20.00;13.40;;;;;;99615.81;;;;108208;1281;62465;-38
2022/01/09 00:55:42;;;;;;;18.00;13.40;;;;;;99612.88;;;;108446;1281;65862;-38
2022/01/09 00:58:09;;;;;;;16.90;13.10;;;;;;99608.52;;;;108431;1281;62623;-37
2022/01/09 01:00:39;;;;;;;20.30;14.00;;;;;;99608.20;;;;108462;1281;62572;-38
2022/01/09 01:03:06;;;;;;;17.10;12.20;;;;;;99604.23;;;;108132;1280;388562;-38
2022/01/09 01:05:34;;;;;;;15.80;13.10;;;;;;99605.11;;;;108442;1280;62513;-38
2022/01/09 01:08:01;;;;;;;17.10;12.70;;;;;;99601.23;;;;108452;1281;67129;-40
2022/01/09 01:10:28;;;;;;;17.40;13.40;;;;;;99601.46;;;;108434;1281;62554;-37
2022/01/09 01:12:55;;;;;;;16.00;12.70;;;;;;99594.02;;;;108382;1281;62537;-38
2022/01/09 01:15:23;;;;;;;16.70;13.10;;;;;;99591.88;;;;108422;1281;62679;-40
2022/01/09 01:17:50;;;;;;;17.90;12.70;;;;;;99586.41;;;;108269;1281;62486;-38
2022/01/09 01:20:21;;;;;;;18.50;12.50;;;;;;99586.18;;;;108450;1280;67407;-37
2022/01/09 01:22:50;;;;;;;18.90;13.20;;;;;;99583.63;;;;108356;1281;62547;-37
2022/01/09 01:25:19;;;;;;;17.90;12.60;;;;;;99575.78;;;;108464;1281;62615;-37
2022/01/09 01:27:47;;;;;;;18.10;12.80;;;;;;99575.30;;;;108421;1280;62610;-38
2022/01/09 01:30:14;;;;;;;16.80;12.50;;;;;;99574.44;;;;108431;1281;62571;-35
2022/01/09 01:32:42;;;;;;;17.90;12.50;;;;;;99571.36;;;;108426;1280;66241;-36
2022/01/09 01:35:11;;;;;;;16.90;12.50;;;;;;99567.41;;;;108446;1281;62670;-40
2022/01/09 01:37:41;;;;;;;16.80;12.50;;;;;;99567.38;;;;108343;1281;62554;-38
2022/01/09 01:40:17;;;;;;;17.00;13.20;;;;;;99561.41;;;;108117;1282;62548;-38
2022/01/09 01:42:45;;;;;;;15.70;12.10;;;;;;99558.64;;;;108358;1280;62577;-40
2022/01/09 01:45:14;;;;;;;16.00;12.10;;;;;;99558.40;;;;108451;1281;65177;-40
2022/01/09 01:47:41;;;;;;;16.10;11.50;;;;;;99554.00;;;;108503;1280;62565;-39
2022/01/09 01:50:12;;;;;;;15.50;12.30;;;;;;99554.31;;;;108465;1281;62518;-38
2022/01/09 01:52:45;;;;;;;16.00;12.00;;;;;;99555.44;;;;108462;1281;62602;-38
2022/01/09 01:55:13;;;;;;;15.80;12.40;;;;;;99549.92;;;;108480;1281;62540;-37
2022/01/09 01:57:42;;;;;;;16.60;11.90;;;;;;99545.45;;;;108483;1280;65338;-36
2022/01/09 02:00:14;;;;;;;16.80;12.60;;;;;;99538.20;;;;108382;1281;62733;-37
2022/01/09 02:02:41;;;;;;;17.00;12.60;;;;;;99539.88;;;;108459;1280;62560;-37
2022/01/09 02:05:09;;;;;;;17.50;12.80;;;;;;99534.30;;;;108460;1280;62598;-38
2022/01/09 02:07:38;;;;;;;16.40;12.20;;;;;;99540.65;;;;108438;1281;62503;-38
2022/01/09 02:10:08;;;;;;;16.40;12.20;;;;;;99539.81;;;;108481;1280;64921;-36
2022/01/09 02:12:40;;;;;;;16.50;12.00;;;;;;99539.62;;;;108458;1280;62636;-40
2022/01/09 02:15:30;;;;;;;15.60;11.70;;;;;;99539.52;;;;108417;1281;62616;-38
2022/01/09 02:17:57;;;;;;;16.80;13.00;;;;;;99535.55;;;;108451;1281;62468;-37
2022/01/09 02:20:24;;;;;;;15.80;12.20;;;;;;99529.79;;;;108514;1280;62504;-40
2022/01/09 02:22:52;;;;;;;15.80;11.90;;;;;;99525.50;;;;108479;1280;66037;-37
2022/01/09 02:25:19;;;;;;;16.80;12.80;;;;;;99525.67;;;;108461;1280;62668;-37
2022/01/09 02:27:46;;;;;;;16.70;11.90;;;;;;99520.71;;;;108520;1280;62522;-36
2022/01/09 02:30:13;;;;;;;16.30;12.20;;;;;;99520.04;;;;108479;1281;62547;-35
2022/01/09 02:32:41;;;;;;;16.20;11.80;;;;;;99512.96;;;;108516;1280;62523;-36
2022/01/09 02:35:08;;;;;;;16.20;11.50;;;;;;99513.21;;;;108374;1281;67185;-36
2022/01/09 02:37:35;;;;;;;16.30;12.70;;;;;;99510.77;;;;108473;1280;62725;-37
2022/01/09 02:40:05;;;;;;;16.20;12.40;;;;;;99506.63;;;;108477;1281;62566;-37
2022/01/09 02:42:32;;;;;;;16.30;12.30;;;;;;99506.04;;;;108469;1280;62528;-35
2022/01/09 02:45:01;;;;;;;16.00;11.90;;;;;;99509.56;;;;108446;1281;62561;-37
2022/01/09 02:47:31;;;;;;;17.20;11.80;;;;;;99504.02;;;;108477;1280;64541;-35
2022/01/09 02:50:17;;;;;;;16.50;12.50;;;;;;99503.59;;;;108483;1281;62626;-37
2022/01/09 02:53:02;;;;;;;15.50;11.30;;;;;;99503.61;;;;108503;1280;62541;-37
2022/01/09 02:55:29;;;;;;;17.00;12.40;;;;;;99499.84;;;;108494;1280;62632;-38
2022/01/09 02:57:59;;;;;;;16.00;12.50;;;;;;99497.55;;;;108489;1280;62496;-38
2022/01/09 03:00:30;;;;;;;16.80;12.30;;;;;;99492.91;;;;108481;1280;64872;-35
2022/01/09 03:02:58;;;;;;;16.10;11.90;;;;;;99488.76;;;;108459;1281;62673;-36
2022/01/09 03:05:27;;;;;;;18.00;12.80;;;;;;99489.70;;;;108417;1281;62562;-37
2022/01/09 03:07:55;;;;;;;16.40;12.00;;;;;;99487.38;;;;108380;1281;62616;-38
2022/01/09 03:10:23;;;;;;;14.90;11.20;;;;;;99483.11;;;;108510;1280;62513;-37
2022/01/09 03:12:53;;;;;;;14.40;11.30;;;;;;99479.16;;;;108492;1281;65595;-38
2022/01/09 03:15:20;;;;;;;16.80;12.30;;;;;;99475.95;;;;108454;1281;62575;-39
2022/01/09 03:17:47;;;;;;;16.60;11.90;;;;;;99477.31;;;;108465;1280;62551;-38
2022/01/09 03:20:21;;;;;;;16.60;12.00;;;;;;99476.30;;;;108475;1281;62574;-38
2022/01/09 03:22:49;;;;;;;15.80;11.90;;;;;;99477.66;;;;108513;1281;62573;-37
2022/01/09 03:25:17;;;;;;;15.40;11.80;;;;;;99474.50;;;;108482;1280;66219;-37
2022/01/09 03:27:50;;;;;;;16.90;11.80;;;;;;99478.02;;;;108487;1281;62702;-37
2022/01/09 03:30:20;;;;;;;15.30;11.80;;;;;;99475.63;;;;108478;1280;62567;-40
2022/01/09 03:32:48;;;;;;;15.30;12.00;;;;;;99474.02;;;;108276;1281;62564;-38
2022/01/09 03:35:18;;;;;;;15.90;12.20;;;;;;99474.58;;;;108486;1281;62562;-38
2022/01/09 03:37:48;;;;;;;17.40;12.60;;;;;;99475.36;;;;108314;1281;64387;-38
2022/01/09 03:40:24;;;;;;;16.20;12.40;;;;;;99474.20;;;;108423;1281;62918;-37
2022/01/09 03:42:52;;;;;;;16.90;11.90;;;;;;99474.09;;;;108265;1281;62593;-37
2022/01/09 03:45:22;;;;;;;16.80;11.80;;;;;;99475.42;;;;108404;1280;62695;-40
2022/01/09 03:47:50;;;;;;;16.70;12.40;;;;;;99475.98;;;;108476;1281;62520;-38
2022/01/09 03:50:17;;;;;;;14.90;11.50;;;;;;99479.33;;;;108461;1280;67487;-37
2022/01/09 03:52:48;;;;;;;17.50;12.00;;;;;;99477.34;;;;108028;1284;62679;-37
2022/01/09 03:55:19;;;;;;;17.00;11.90;;;;;;99479.44;;;;108454;1281;62515;-35
2022/01/09 03:57:47;;;;;;;15.90;11.30;;;;;;99477.77;;;;108378;1281;62671;-36
2022/01/09 04:00:18;;;;;;;16.50;12.30;;;;;;99477.20;;;;108490;1281;62582;-38
2022/01/09 04:02:48;;;;;;;15.30;12.10;;;;;;99474.65;;;;108301;1281;64657;-37
2022/01/09 04:05:16;;;;;;;17.40;12.30;;;;;;99476.89;;;;108409;1281;62666;-38
2022/01/09 04:07:43;;;;;;;17.40;11.70;;;;;;99478.52;;;;108442;1281;62509;-37
2022/01/09 04:10:11;;;;;;;16.60;12.50;;;;;;99478.61;;;;108462;1281;62570;-37
2022/01/09 04:12:48;;;;;;;17.30;12.20;;;;;;99475.04;;;;108316;1281;62513;-38
2022/01/09 04:15:15;;;;;;;16.90;12.30;;;;;;99476.21;;;;108402;1280;67717;-37
2022/01/09 04:20:12;;;;;;;17.30;12.50;;;;;;99476.91;;;;108300;1281;62535;-43
2022/01/09 04:22:40;;;;;;;15.60;11.70;;;;;;99475.50;;;;108441;1280;62447;-40
2022/01/09 04:25:08;;;;;;;17.10;12.40;;;;;;99478.48;;;;108481;1281;62498;-36
2022/01/09 04:27:37;;;;;;;15.60;12.20;;;;;;99476.91;;;;108469;1280;64489;-43
2022/01/09 04:30:06;;;;;;;15.20;11.80;;;;;;99474.66;;;;108456;1281;62739;-35
2022/01/09 04:32:33;;;;;;;16.20;11.80;;;;;;99476.64;;;;108449;1280;62588;-32
2022/01/09 04:35:01;;;;;;;18.50;12.50;;;;;;99475.98;;;;108465;1280;62628;-31
2022/01/09 04:37:29;;;;;;;17.20;12.10;;;;;;99474.23;;;;108512;1280;62536;-32
2022/01/09 04:39:57;;;;;;;15.90;10.90;;;;;;99476.60;;;;108480;1280;66488;-32
2022/01/09 04:42:30;;;;;;;15.70;11.80;;;;;;99475.14;;;;108392;1281;62614;-32
2022/01/09 04:44:58;;;;;;;17.00;11.90;;;;;;99478.20;;;;108409;1280;62522;-32
2022/01/09 04:47:25;;;;;;;17.40;12.30;;;;;;99474.27;;;;108422;1280;62708;-37
2022/01/09 04:49:53;;;;;;;16.00;12.00;;;;;;99473.17;;;;108468;1281;62526;-31
2022/01/09 04:52:25;;;;;;;16.50;12.20;;;;;;99469.69;;;;108441;1280;67711;-38
2022/01/09 04:54:52;;;;;;;18.40;11.90;;;;;;99465.08;;;;108284;1281;62580;-37
2022/01/09 04:57:20;;;;;;;15.10;11.90;;;;;;99461.86;;;;108425;1281;62529;-37
2022/01/09 04:59:47;;;;;;;17.80;12.70;;;;;;99458.66;;;;108458;1280;62617;-32
2022/01/09 05:02:14;;;;;;;16.10;11.70;;;;;;99455.14;;;;108471;1280;62504;-32
2022/01/09 05:04:41;;;;;;;17.70;12.30;;;;;;99455.61;;;;108451;1280;65427;-32
2022/01/09 05:07:09;;;;;;;16.60;12.30;;;;;;99452.75;;;;108433;1280;62623;-32
2022/01/09 05:09:36;;;;;;;15.70;11.40;;;;;;99453.46;;;;108404;1281;62513;-35
2022/01/09 05:12:04;;;;;;;16.20;11.30;;;;;;99449.52;;;;108306;1281;62483;-35
2022/01/09 05:14:31;;;;;;;17.50;12.40;;;;;;99446.48;;;;108431;1281;62520;-37
2022/01/09 05:16:58;;;;;;;17.60;12.50;;;;;;99447.08;;;;108392;1281;66237;-38
2022/01/09 05:19:30;;;;;;;17.00;11.90;;;;;;99446.43;;;;108361;1280;62701;-37
2022/01/09 05:21:57;;;;;;;16.20;12.20;;;;;;99443.70;;;;108350;1281;63160;-37
2022/01/09 05:24:25;;;;;;;17.00;12.40;;;;;;99443.31;;;;108418;1279;62637;-38
2022/01/09 05:26:53;;;;;;;17.10;12.40;;;;;;99439.23;;;;108418;1280;62609;-38
2022/01/09 05:29:22;;;;;;;14.80;11.60;;;;;;99441.49;;;;108396;1281;66448;-37
2022/01/09 05:31:49;;;;;;;17.20;12.30;;;;;;99441.72;;;;108416;1281;62611;-37
2022/01/09 05:34:16;;;;;;;16.20;12.10;;;;;;99440.89;;;;108418;1281;62604;-37
2022/01/09 05:36:43;;;;;;;16.30;12.20;;;;;;99441.64;;;;108400;1281;62575;-39
2022/01/09 05:39:11;;;;;;;17.40;12.80;;;;;;99441.91;;;;108420;1280;62477;-36
2022/01/09 05:41:40;;;;;;;16.70;12.70;;;;;;99444.66;;;;108415;1281;66405;-38
2022/01/09 05:44:07;;;;;;;15.60;12.10;;;;;;99444.05;;;;108367;1280;62684;-37
2022/01/09 05:46:34;;;;;;;15.30;11.90;;;;;;99443.77;;;;108391;1281;62576;-35
2022/01/09 05:49:02;;;;;;;15.70;11.80;;;;;;99444.91;;;;108398;1281;62637;-37
2022/01/09 05:51:30;;;;;;;16.40;11.40;;;;;;99443.90;;;;108381;1281;62550;-37
2022/01/09 05:53:57;;;;;;;16.90;12.40;;;;;;99438.33;;;;108418;1281;66015;-40
2022/01/09 05:56:24;;;;;;;17.00;12.10;;;;;;99433.50;;;;108303;1281;62784;-40
2022/01/09 05:58:51;;;;;;;17.80;12.40;;;;;;99431.46;;;;108411;1280;62514;-37
2022/01/09 06:01:18;;;;;;;17.00;13.00;;;;;;99433.15;;;;108373;1280;62589;-36
2022/01/09 06:03:46;;;;;;;16.70;12.50;;;;;;99427.81;;;;108054;1284;62545;-37
2022/01/09 06:06:13;;;;;;;16.00;12.10;;;;;;99428.90;;;;108399;1280;66304;-38
2022/01/09 06:08:40;;;;;;;15.80;12.40;;;;;;99427.69;;;;108391;1281;62593;-37
2022/01/09 06:11:07;;;;;;;16.50;12.40;;;;;;99425.46;;;;108382;1280;62610;-35
2022/01/09 06:13:34;;;;;;;17.10;12.40;;;;;;99426.37;;;;108300;1281;62534;-34
2022/01/09 06:16:03;;;;;;;16.10;12.90;;;;;;99428.33;;;;108410;1281;62895;-37
2022/01/09 06:18:30;;;;;;;16.90;12.40;;;;;;99429.14;;;;108326;1280;66210;-38
2022/01/09 06:20:57;;;;;;;17.60;12.30;;;;;;99431.70;;;;108386;1281;62675;-34
2022/01/09 06:23:25;;;;;;;17.80;12.60;;;;;;99432.67;;;;108393;1281;62597;-37
2022/01/09 06:25:53;;;;;;;16.70;13.10;;;;;;99428.52;;;;108383;1280;62517;-37
2022/01/09 06:28:20;;;;;;;15.60;11.80;;;;;;99429.64;;;;108393;1281;62566;-36
2022/01/09 06:30:48;;;;;;;17.40;12.40;;;;;;99429.55;;;;108360;1280;67733;-36
2022/01/09 06:33:15;;;;;;;15.30;12.20;;;;;;99433.46;;;;108370;1280;62612;-37
2022/01/09 06:35:42;;;;;;;15.30;11.70;;;;;;99433.66;;;;108390;1281;62624;-37
2022/01/09 06:38:09;;;;;;;17.60;12.00;;;;;;99433.89;;;;108095;1281;62665;-37
2022/01/09 06:40:37;;;;;;;16.00;11.90;;;;;;99435.60;;;;108397;1280;62487;-37
2022/01/09 06:43:05;;;;;;;16.00;11.90;;;;;;99438.46;;;;108301;1281;67507;-37
2022/01/09 06:45:32;;;;;;;15.60;11.70;;;;;;99439.90;;;;108364;1280;63087;-37
2022/01/09 06:47:59;;;;;;;17.40;12.10;;;;;;99441.98;;;;108204;1281;62869;-37
2022/01/09 06:50:27;;;;;;;17.40;12.30;;;;;;99441.91;;;;108332;1281;62595;-37
2022/01/09 06:52:54;;;;;;;17.60;11.90;;;;;;99442.47;;;;108370;1280;62575;-37
2022/01/09 06:55:22;;;;;;;16.30;11.70;;;;;;99439.23;;;;108368;1281;66171;-36
2022/01/09 06:57:49;;;;;;;15.70;11.90;;;;;;99440.77;;;;108303;1281;62650;-35
2022/01/09 07:00:17;;;;;;;17.20;12.30;;;;;;99437.73;;;;108358;1281;62623;-37
2022/01/09 07:02:45;;;;;;;15.40;12.30;;;;;;99437.92;;;;108284;1281;62569;-37
2022/01/09 07:05:13;;;;;;;17.00;12.40;;;;;;99438.85;;;;108386;1281;62508;-37
2022/01/09 07:07:41;;;;;;;14.50;11.60;;;;;;99443.56;;;;108320;1281;66700;-37
2022/01/09 07:10:09;;;;;;;15.80;11.80;;;;;;99447.39;;;;108348;1281;62632;-36
2022/01/09 07:12:37;;;;;;;16.40;12.10;;;;;;99450.23;;;;108370;1281;62562;-37
2022/01/09 07:15:05;;;;;;;15.60;11.90;;;;;;99452.16;;;;108360;1280;62640;-37
2022/01/09 07:17:32;;;;;;;17.20;12.20;;;;;;99451.84;;;;108087;1282;62572;-37
2022/01/09 07:20:00;;;;;;;16.00;11.60;;;;;;99454.84;;;;108379;1281;65185;-37
2022/01/09 07:22:27;;;;;;;17.00;12.50;;;;;;99456.08;;;;108376;1281;62624;-37
2022/01/09 07:24:55;;;;;;;15.50;11.70;;;;;;99460.23;;;;108470;1280;62565;-38
2022/01/09 07:27:22;;;;;;;15.80;11.70;;;;;;99455.13;;;;108368;1280;62578;-37
2022/01/09 07:29:49;;;;;;;17.20;11.70;;;;;;99453.35;;;;108379;1280;62446;-35
2022/01/09 07:32:17;;;;;;;16.80;12.40;;;;;;99454.44;;;;108377;1280;66142;-35
2022/01/09 07:34:44;;;;;;;16.20;12.10;;;;;;99457.39;;;;108359;1280;62500;-37
2022/01/09 07:37:11;;;;;;;15.10;11.90;;;;;;99457.58;;;;108455;1279;62533;-37
2022/01/09 07:39:38;;;;;;;15.90;12.50;;;;;;99454.38;;;;108372;1281;62623;-37
2022/01/09 07:42:05;;;;;;;14.10;12.10;;;;;;99455.09;;;;108355;1281;62573;-37
2022/01/09 07:44:33;;;;;;;16.50;12.00;;;;;;99455.29;;;;108386;1281;66080;-38
2022/01/09 07:47:00;;;;;;;16.30;11.60;;;;;;99456.56;;;;108349;1280;62650;-37
2022/01/09 07:49:27;;;;;;;15.60;11.30;;;;;;99456.74;;;;108366;1280;62603;-37
2022/01/09 07:51:54;;;;;;;17.10;11.90;;;;;;99452.11;;;;108345;1281;62575;-37
2022/01/09 07:54:21;;;;;;;15.50;11.70;;;;;;99450.53;;;;108390;1281;62512;-38
2022/01/09 07:56:48;;;;;;;16.40;12.20;;;;;;99443.33;;;;108384;1281;65757;-37
2022/01/09 07:59:16;;;;;;;16.00;12.00;;;;;;99449.58;;;;108375;1281;62698;-35
2022/01/09 08:01:43;;;;;;;15.20;12.20;;;;;;99444.06;;;;108287;1281;62593;-36
2022/01/09 08:04:10;;;;;;;18.10;12.90;;;;;;99445.00;;;;108367;1281;62701;-36
2022/01/09 08:06:39;;;;;;;16.20;11.50;;;;;;99447.34;;;;108395;1281;62522;-37
2022/01/09 08:09:06;;;;;;;16.00;12.40;;;;;;99444.73;;;;108387;1281;64437;-36
2022/01/09 08:11:33;;;;;;;16.00;12.10;;;;;;99445.08;;;;108350;1281;62629;-36
2022/01/09 08:14:00;;;;;;;17.30;12.70;;;;;;99447.03;;;;108375;1281;62659;-37
2022/01/09 08:16:28;;;;;;;16.10;11.70;;;;;;99449.06;;;;108368;1281;62605;-34
2022/01/09 08:18:55;;;;;;;16.20;12.70;;;;;;99447.88;;;;108384;1280;62512;-37
2022/01/09 08:21:22;;;;;;;15.80;12.20;;;;;;99449.41;;;;108374;1281;65213;-38
2022/01/09 08:23:50;;;;;;;17.00;12.50;;;;;;99450.39;;;;108283;1281;62681;-41
2022/01/09 08:26:18;;;;;;;16.40;12.40;;;;;;99448.16;;;;108353;1280;62478;-38
2022/01/09 08:28:48;;;;;;;16.20;12.20;;;;;;99448.95;;;;108338;1281;62591;-37
2022/01/09 08:31:17;;;;;;;15.90;12.10;;;;;;99453.94;;;;108359;1281;62570;-35
2022/01/09 08:33:45;;;;;;;15.20;11.80;;;;;;99456.16;;;;108375;1280;66157;-36
2022/01/09 08:36:13;;;;;;;18.00;11.80;;;;;;99457.50;;;;108375;1280;62499;-40
2022/01/09 08:38:42;;;;;;;16.80;13.00;;;;;;99456.02;;;;108358;1280;62568;-38
2022/01/09 08:41:09;;;;;;;16.70;12.80;;;;;;99457.48;;;;108382;1280;62982;-39
2022/01/09 08:43:37;;;;;;;16.40;13.00;;;;;;99456.87;;;;108396;1280;62612;-38
2022/01/09 08:46:05;;;;;;;16.10;12.90;;;;;;99457.23;;;;108304;1281;67530;-38
2022/01/09 08:48:32;;;;;;;16.50;12.70;;;;;;99459.05;;;;108389;1281;62668;-40
2022/01/09 08:51:00;;;;;;;16.90;12.80;;;;;;99461.08;;;;108411;1281;62565;-37
2022/01/09 08:53:27;;;;;;;17.60;12.80;;;;;;99459.48;;;;108350;1281;62566;-42
2022/01/09 08:55:54;;;;;;;15.30;11.40;;;;;;99459.23;;;;108307;1281;62619;-38
2022/01/09 08:58:23;;;;;;;17.60;12.20;;;;;;99457.77;;;;108373;1281;67711;-39
2022/01/09 09:00:50;;;;;;;16.00;12.10;;;;;;99455.30;;;;108367;1281;62699;-38
2022/01/09 09:03:17;;;;;;;16.00;11.80;;;;;;99456.95;;;;108154;1281;275061;-38
2022/01/09 09:05:45;;;;;;;16.60;12.70;;;;;;99457.30;;;;108369;1280;62644;-37
2022/01/09 09:08:12;;;;;;;16.70;12.50;;;;;;99456.77;;;;108315;1281;62555;-34
2022/01/09 09:10:39;;;;;;;16.00;11.70;;;;;;99458.50;;;;108396;1280;66503;-37
2022/01/09 09:13:07;;;;;;;15.30;12.10;;;;;;99460.88;;;;108283;1281;62925;-41
2022/01/09 09:15:36;;;;;;;16.90;12.50;;;;;;99461.95;;;;108387;1281;62446;-40
2022/01/09 09:18:03;;;;;;;15.40;12.00;;;;;;99461.21;;;;108367;1281;62569;-32
2022/01/09 09:20:31;;;;;;;15.10;11.80;;;;;;99464.91;;;;108398;1281;63010;-37
2022/01/09 09:22:58;;;;;;;17.10;11.90;;;;;;99468.13;;;;108374;1280;66229;-36
2022/01/09 09:25:25;;;;;;;17.80;13.40;;;;;;99469.79;;;;108344;1280;62599;-38
2022/01/09 09:27:53;;;;;;;17.00;13.10;;;;;;99466.34;;;;108392;1281;62607;-40
2022/01/09 09:30:20;;;;;;;16.90;11.90;;;;;;99466.95;;;;108390;1281;62582;-40
2022/01/09 09:32:47;;;;;;;15.10;12.00;;;;;;99468.23;;;;108317;1281;62452;-37
2022/01/09 09:35:15;;;;;;;17.60;12.70;;;;;;99466.00;;;;108368;1281;65959;-38
2022/01/09 09:37:42;;;;;;;16.50;11.80;;;;;;99470.89;;;;108374;1281;62635;-38
2022/01/09 09:40:10;;;;;;;14.30;11.20;;;;;;99471.09;;;;108500;1280;62562;-38
2022/01/09 09:42:39;;;;;;;16.30;12.00;;;;;;99470.70;;;;108389;1280;62461;-38
2022/01/09 09:45:09;;;;;;;15.10;11.80;;;;;;99469.34;;;;108408;1281;62567;-38
2022/01/09 09:47:38;;;;;;;16.30;12.40;;;;;;99467.13;;;;108366;1281;64679;-38
2022/01/09 09:50:10;;;;;;;15.50;11.50;;;;;;99466.20;;;;108377;1280;62459;-38
2022/01/09 09:52:38;;;;;;;15.70;12.20;;;;;;99465.96;;;;108278;1281;62541;-38
2022/01/09 09:55:06;;;;;;;14.20;10.70;;;;;;99469.86;;;;108295;1280;62642;-38
2022/01/09 09:57:33;;;;;;;15.90;11.10;;;;;;99471.38;;;;108349;1281;62569;-35
2022/01/09 10:00:05;;;;;;;15.20;11.60;;;;;;99469.52;;;;108378;1281;67301;-44
2022/01/09 10:02:41;;;;;;;15.80;11.40;;;;;;99469.04;;;;108348;1281;62880;-34
2022/01/09 10:05:09;;;;;;;15.80;11.70;;;;;;99465.05;;;;108394;1281;62536;-42
2022/01/09 10:07:37;;;;;;;16.00;11.80;;;;;;99461.98;;;;108299;1280;62671;-42
2022/01/09 10:10:17;;;;;;;15.20;11.50;;;;;;99460.05;;;;108396;1281;62517;-40
2022/01/09 10:12:46;;;;;;;14.60;11.10;;;;;;99454.01;;;;108363;1281;67260;-38
2022/01/09 10:15:18;;;;;;;15.20;11.50;;;;;;99451.10;;;;108316;1281;62621;-44
2022/01/09 10:17:48;;;;;;;16.10;11.60;;;;;;99445.13;;;;108360;1281;62649;-37
2022/01/09 10:20:23;;;;;;;15.70;11.20;;;;;;99444.48;;;;108301;1281;62545;-40
2022/01/09 10:22:54;;;;;;;16.20;12.10;;;;;;99447.83;;;;108402;1279;62463;-45
2022/01/09 10:25:27;;;;;;;14.60;11.30;;;;;;99446.59;;;;108623;1279;65879;-38
2022/01/09 10:28:03;;;;;;;14.70;11.10;;;;;;99446.26;;;;108623;1279;62573;-31
2022/01/09 10:30:35;;;;;;;15.90;11.20;;;;;;99443.47;;;;108652;1279;62612;-35
2022/01/09 10:33:07;;;;;;;15.00;11.40;;;;;;99441.47;;;;108626;1279;62485;-33
2022/01/09 10:35:36;;;;;;;13.80;11.80;;;;;;99437.71;;;;108491;1280;62502;-34
2022/01/09 10:38:22;;;;;;;15.10;11.70;;;;;;99437.16;;;;108636;1278;64542;-32
2022/01/09 10:40:56;;;;;;;15.10;11.30;;;;;;99438.06;;;;108576;1280;62711;-41
2022/01/09 10:43:30;;;;;;;13.50;10.20;;;;;;99437.23;;;;108638;1279;62533;-44
2022/01/09 10:46:01;;;;;;;13.60;10.70;;;;;;99433.79;;;;108460;1279;62575;-34
2022/01/09 10:48:42;;;;;;;13.70;10.60;;;;;;99426.82;;;;108643;1279;62572;-33
2022/01/09 10:51:12;;;;;;;14.10;11.10;;;;;;99426.85;;;;108645;1278;65902;-40
2022/01/09 10:53:44;;;;;;;14.80;11.40;;;;;;99429.04;;;;108258;1280;62682;-41
2022/01/09 10:56:14;;;;;;;15.10;11.30;;;;;;99423.92;;;;108574;1279;62551;-40
2022/01/09 10:58:46;;;;;;;14.10;10.30;;;;;;99419.05;;;;108647;1279;62949;-41
2022/01/09 11:01:20;;;;;;;14.70;10.70;;;;;;99416.66;;;;108644;1279;63293;-42
2022/01/09 11:03:54;;;;;;;14.70;10.90;;;;;;99413.50;;;;108492;1279;67128;-41
2022/01/09 11:06:24;;;;;;;16.20;10.70;;;;;;99412.48;;;;108615;1278;62680;-33
2022/01/09 11:08:54;;;;;;;15.40;11.20;;;;;;99412.14;;;;108645;1279;62528;-32
2022/01/09 11:13:52;;;;;;;14.60;11.20;;;;;;99406.36;;;;108652;1280;62520;-32
2022/01/09 11:16:34;;;;;;;15.50;11.40;;;;;;99407.00;;;;108638;1279;64596;-40
2022/01/09 11:19:13;;;;;;;14.00;11.70;;;;;;99403.64;;;;108617;1280;62508;-32
2022/01/09 11:21:46;;;;;;;14.50;11.30;;;;;;99399.91;;;;108590;1280;62552;-32
2022/01/09 11:24:30;;;;;;;16.30;11.30;;;;;;99400.14;;;;108637;1280;63125;-41
2022/01/09 11:27:22;;;;;;;14.70;11.20;;;;;;99401.02;;;;108616;1279;62498;-41
2022/01/09 11:30:19;;;;;;;17.00;12.30;;;;;;99399.69;;;;108632;1279;67810;-32
2022/01/09 11:33:00;;;;;;;15.10;11.30;;;;;;99399.77;;;;108624;1279;62512;-31
2022/01/09 11:36:13;;;;;;;17.90;11.90;;;;;;99398.58;;;;108626;1279;62490;-32
2022/01/09 11:38:55;;;;;;;15.30;11.60;;;;;;99395.12;;;;108332;1278;62569;-31
2022/01/09 11:41:27;;;;;;;16.60;11.70;;;;;;99395.86;;;;108650;1279;62483;-32
2022/01/09 11:44:04;;;;;;;15.10;11.00;;;;;;99394.17;;;;108657;1281;67188;-31
2022/01/09 11:46:58;;;;;;;17.90;12.20;;;;;;99397.69;;;;108623;1280;62522;-31
2022/01/09 11:49:28;;;;;;;19.10;11.30;;;;;;99393.19;;;;108640;1279;62615;-31
2022/01/09 11:52:02;;;;;;;15.10;12.00;;;;;;99393.08;;;;108630;1280;62486;-32
2022/01/09 11:54:46;;;;;;;15.20;12.00;;;;;;99391.26;;;;108623;1279;62613;-41
2022/01/09 11:57:20;;;;;;;17.10;12.00;;;;;;99392.34;;;;108598;1278;68167;-41
2022/01/09 11:59:51;;;;;;;16.00;12.40;;;;;;99391.39;;;;108430;1281;62558;-41
2022/01/09 12:02:18;;;;;;;15.90;11.30;;;;;;99387.19;;;;108443;1281;62548;-41
2022/01/09 12:04:46;;;;;;;17.70;13.10;;;;;;99388.73;;;;108665;1281;62568;-31
2022/01/09 12:07:33;;;;;;;14.30;11.60;;;;;;99388.24;;;;108626;1279;62531;-31
2022/01/09 12:10:23;;;;;;;21.30;14.30;;;;;;99381.02;;;;108628;1278;66586;-43
2022/01/09 12:12:50;;;;;;;17.60;13.10;;;;;;99383.22;;;;108504;1280;62619;-42
2022/01/09 12:15:37;;;;;;;18.60;14.50;;;;;;99388.11;;;;108612;1279;62698;-42
2022/01/09 12:18:07;;;;;;;17.80;13.90;;;;;;99387.41;;;;108591;1280;62589;-38
2022/01/09 12:20:40;;;;;;;19.10;14.40;;;;;;99391.73;;;;108621;1279;62590;-41
2022/01/09 12:23:20;;;;;;;17.40;14.20;;;;;;99392.01;;;;108582;1280;66146;-39
2022/01/09 12:25:52;;;;;;;16.90;14.30;;;;;;99390.30;;;;108624;1279;62530;-39
2022/01/09 12:28:23;;;;;;;19.10;14.60;;;;;;99394.98;;;;108543;1279;62626;-33
2022/01/09 12:31:01;;;;;;;16.50;13.80;;;;;;99398.92;;;;108604;1279;62657;-42
2022/01/09 12:33:28;;;;;;;17.20;13.90;;;;;;99395.86;;;;108427;1279;62570;-38
2022/01/09 12:35:59;;;;;;;20.90;15.50;;;;;;99396.27;;;;108574;1281;65917;-42
2022/01/09 12:38:30;;;;;;;20.80;15.80;;;;;;99392.13;;;;108554;1281;62667;-41
2022/01/09 12:41:08;;;;;;;21.60;16.60;;;;;;99401.70;;;;108535;1281;62874;-39
2022/01/09 12:43:37;;;;;;;19.40;15.60;;;;;;99403.23;;;;108470;1281;62633;-31
2022/01/09 12:46:21;;;;;;;18.30;14.30;;;;;;99406.61;;;;108663;1281;62530;-44
2022/01/09 12:48:56;;;;;;;19.80;14.40;;;;;;99406.77;;;;108663;1279;66176;-44
2022/01/09 12:51:25;;;;;;;17.80;13.90;;;;;;99400.77;;;;108638;1279;62503;-41
2022/01/09 12:53:55;;;;;;;20.00;15.10;;;;;;99402.93;;;;108634;1279;62620;-33